createdAt,value
2022-08-26T00:00:56.717Z,21.74
2022-08-26T00:02:59.016Z,21.73
2022-08-26T00:05:00.677Z,21.73
2022-08-26T00:07:02.413Z,21.59
2022-08-26T00:09:08.101Z,21.62
2022-08-26T00:11:10.219Z,21.61
2022-08-26T00:13:14.350Z,21.67
2022-08-26T00:15:17.706Z,21.68
2022-08-26T00:17:19.213Z,21.58
2022-08-26T00:19:21.787Z,21.60
2022-08-26T00:21:23.764Z,21.61
2022-08-26T00:23:25.333Z,21.60
2022-08-26T00:25:31.900Z,21.65
2022-08-26T00:27:36.456Z,21.65
2022-08-26T00:29:37.975Z,21.63
2022-08-26T00:31:40.418Z,21.59
2022-08-26T00:33:44.737Z,21.56
2022-08-26T00:35:46.815Z,21.49
2022-08-26T00:37:48.998Z,21.53
2022-08-26T00:39:50.654Z,21.50
2022-08-26T00:41:55.989Z,21.43
2022-08-26T00:43:58.190Z,21.46
2022-08-26T00:46:08.242Z,21.42
2022-08-26T00:48:10.035Z,21.45
2022-08-26T00:50:16.274Z,21.38
2022-08-26T00:52:21.654Z,21.42
2022-08-26T00:54:28.655Z,21.41
2022-08-26T00:56:36.363Z,21.40
2022-08-26T00:58:39.786Z,21.45
2022-08-26T01:00:45.512Z,21.44
2022-08-26T01:02:48.560Z,21.42
2022-08-26T01:04:55.428Z,21.47
2022-08-26T01:06:57.848Z,21.51
2022-08-26T01:08:59.613Z,21.51
2022-08-26T01:11:04.264Z,21.55
2022-08-26T01:13:09.700Z,21.54
2022-08-26T01:15:17.525Z,21.58
2022-08-26T01:17:19.504Z,21.54
2022-08-26T01:19:25.828Z,21.47
2022-08-26T01:21:33.315Z,21.54
2022-08-26T01:23:39.943Z,21.52
2022-08-26T01:25:44.970Z,21.49
2022-08-26T01:27:46.543Z,21.49
2022-08-26T01:29:51.568Z,21.50
2022-08-26T01:31:56.730Z,21.46
2022-08-26T01:34:05.598Z,21.47
2022-08-26T01:36:08.107Z,21.44
2022-08-26T01:38:11.260Z,21.44
2022-08-26T01:40:20.379Z,21.42
2022-08-26T01:42:24.608Z,21.42
2022-08-26T01:44:31.046Z,21.39
2022-08-26T01:46:34.024Z,21.39
2022-08-26T01:48:39.166Z,21.38
2022-08-26T01:50:41.247Z,21.38
2022-08-26T01:52:54.209Z,21.35
2022-08-26T01:54:58.781Z,21.30
2022-08-26T01:57:02.437Z,21.28
2022-08-26T01:59:08.487Z,21.31
2022-08-26T02:01:12.753Z,21.33
2022-08-26T02:03:16.390Z,21.22
2022-08-26T02:05:21.268Z,21.24
2022-08-26T02:07:24.177Z,21.24
2022-08-26T02:09:28.473Z,21.27
2022-08-26T02:11:34.680Z,21.30
2022-08-26T02:13:43.774Z,21.25
2022-08-26T02:15:45.567Z,21.24
2022-08-26T02:17:47.698Z,21.27
2022-08-26T02:19:50.397Z,21.22
2022-08-26T02:21:53.095Z,21.25
2022-08-26T02:23:56.057Z,21.23
2022-08-26T02:26:03.766Z,21.20
2022-08-26T02:28:06.199Z,21.15
2022-08-26T02:30:13.055Z,21.11
2022-08-26T02:32:14.645Z,21.07
2022-08-26T02:34:28.154Z,21.05
2022-08-26T02:36:32.965Z,20.99
2022-08-26T02:38:34.890Z,21.02
2022-08-26T02:40:38.934Z,20.97
2022-08-26T02:42:40.499Z,21.01
2022-08-26T02:44:43.968Z,20.98
2022-08-26T02:46:47.494Z,20.98
2022-08-26T02:48:49.460Z,20.92
2022-08-26T02:50:50.992Z,20.91
2022-08-26T02:52:53.117Z,20.86
2022-08-26T02:54:54.676Z,20.87
2022-08-26T02:56:56.824Z,20.84
2022-08-26T02:58:58.978Z,20.82
2022-08-26T03:01:01.564Z,20.82
2022-08-26T03:03:05.273Z,20.81
2022-08-26T03:05:07.657Z,20.80
2022-08-26T03:07:09.497Z,20.80
2022-08-26T03:09:11.150Z,20.73
2022-08-26T03:11:20.430Z,20.65
2022-08-26T03:13:23.470Z,20.68
2022-08-26T03:15:25.101Z,20.70
2022-08-26T03:17:26.913Z,20.70
2022-08-26T03:19:30.236Z,20.61
2022-08-26T03:21:32.831Z,20.63
2022-08-26T03:23:34.887Z,20.68
2022-08-26T03:25:36.438Z,20.63
2022-08-26T03:27:38.323Z,20.54
2022-08-26T03:29:40.577Z,20.54
2022-08-26T03:31:42.333Z,20.49
2022-08-26T03:33:43.932Z,20.55
2022-08-26T03:35:46.997Z,20.54
2022-08-26T03:37:48.586Z,20.55
2022-08-26T03:39:51.084Z,20.51
2022-08-26T03:41:52.639Z,20.54
2022-08-26T03:43:58.399Z,20.54
2022-08-26T03:46:05.086Z,20.48
2022-08-26T03:48:06.815Z,20.54
2022-08-26T03:50:11.687Z,20.55
2022-08-26T03:52:15.550Z,20.48
2022-08-26T03:54:17.676Z,20.47
2022-08-26T03:56:19.231Z,20.34
2022-08-26T03:58:21.095Z,20.41
2022-08-26T04:00:23.066Z,20.29
2022-08-26T04:02:26.131Z,20.44
2022-08-26T04:04:27.752Z,20.45
2022-08-26T04:06:31.398Z,20.50
2022-08-26T04:08:34.719Z,20.49
2022-08-26T04:10:37.629Z,20.51
2022-08-26T04:12:40.337Z,20.45
2022-08-26T04:14:42.038Z,20.43
2022-08-26T04:16:43.677Z,20.43
2022-08-26T04:18:46.938Z,20.43
2022-08-26T04:20:49.140Z,20.39
2022-08-26T04:22:50.698Z,20.36
2022-08-26T04:24:53.690Z,20.35
2022-08-26T04:26:55.943Z,20.40
2022-08-26T04:28:57.438Z,20.39
2022-08-26T04:31:01.017Z,20.39
2022-08-26T04:33:02.573Z,20.40
2022-08-26T04:35:04.904Z,20.36
2022-08-26T04:37:08.396Z,20.41
2022-08-26T04:39:11.409Z,20.41
2022-08-26T04:41:15.685Z,20.48
2022-08-26T04:43:18.770Z,20.50
2022-08-26T04:45:22.847Z,20.50
2022-08-26T04:47:27.136Z,20.54
2022-08-26T04:49:35.106Z,20.55
2022-08-26T04:51:38.211Z,20.60
2022-08-26T04:53:40.345Z,20.63
2022-08-26T04:55:42.868Z,20.67
2022-08-26T04:57:48.015Z,20.76
2022-08-26T04:59:49.557Z,20.83
2022-08-26T05:01:53.305Z,20.86
2022-08-26T05:03:55.011Z,20.95
2022-08-26T05:05:56.670Z,21.06
2022-08-26T05:07:58.375Z,21.18
2022-08-26T05:09:59.932Z,21.23
2022-08-26T05:12:01.487Z,21.26
2022-08-26T05:14:06.545Z,21.26
2022-08-26T05:16:11.680Z,21.35
2022-08-26T05:18:15.513Z,21.37
2022-08-26T05:20:17.718Z,21.39
2022-08-26T05:22:19.901Z,21.42
2022-08-26T05:24:22.001Z,21.48
2022-08-26T05:26:26.199Z,21.61
2022-08-26T05:28:29.898Z,21.65
2022-08-26T05:30:32.766Z,21.71
2022-08-26T05:32:35.854Z,21.78
2022-08-26T05:34:37.801Z,21.83
2022-08-26T05:36:39.872Z,21.93
2022-08-26T05:38:41.882Z,21.97
2022-08-26T05:40:47.334Z,22.10
2022-08-26T05:42:48.810Z,22.22
2022-08-26T05:44:55.808Z,22.34
2022-08-26T05:46:58.975Z,22.34
2022-08-26T05:49:00.705Z,22.37
2022-08-26T05:51:03.891Z,22.46
2022-08-26T05:53:06.838Z,22.61
2022-08-26T05:55:08.872Z,22.62
2022-08-26T05:57:10.519Z,22.74
2022-08-26T05:59:14.647Z,22.74
2022-08-26T06:01:18.823Z,22.74
2022-08-26T06:03:21.745Z,22.81
2022-08-26T06:05:24.121Z,22.79
2022-08-26T06:07:26.747Z,22.78
2022-08-26T06:09:28.300Z,22.83
2022-08-26T06:11:31.032Z,22.99
2022-08-26T06:13:33.907Z,23.01
2022-08-26T06:15:39.770Z,23.03
2022-08-26T06:17:43.806Z,22.86
2022-08-26T06:19:46.649Z,22.65
2022-08-26T06:21:51.270Z,22.45
2022-08-26T06:23:58.631Z,22.34
2022-08-26T06:26:00.961Z,22.27
2022-08-26T06:28:02.925Z,22.22
2022-08-26T06:30:05.185Z,22.22
2022-08-26T06:32:08.830Z,22.39
2022-08-26T06:34:10.979Z,22.64
2022-08-26T06:36:17.415Z,22.69
2022-08-26T06:38:20.258Z,22.81
2022-08-26T06:40:22.137Z,22.69
2022-08-26T06:42:23.717Z,22.85
2022-08-26T06:44:25.292Z,23.03
2022-08-26T06:46:28.080Z,23.13
2022-08-26T06:48:30.039Z,23.20
2022-08-26T06:50:31.588Z,23.31
2022-08-26T06:52:34.492Z,23.44
2022-08-26T06:54:38.875Z,23.60
2022-08-26T06:56:42.069Z,23.55
2022-08-26T06:58:44.525Z,23.64
2022-08-26T07:00:47.347Z,23.60
2022-08-26T07:02:49.273Z,23.84
2022-08-26T07:04:51.186Z,23.92
2022-08-26T07:06:53.860Z,24.08
2022-08-26T07:09:03.648Z,24.20
2022-08-26T07:11:07.302Z,24.33
2022-08-26T07:13:10.721Z,24.46
2022-08-26T07:15:12.269Z,24.52
2022-08-26T07:17:14.058Z,24.51
2022-08-26T07:19:16.783Z,24.57
2022-08-26T07:21:18.764Z,24.55
2022-08-26T07:23:20.310Z,24.61
2022-08-26T07:25:25.450Z,24.76
2022-08-26T07:27:26.970Z,24.90
2022-08-26T07:29:30.664Z,25.00
2022-08-26T07:31:39.506Z,25.18
2022-08-26T07:33:44.414Z,25.20
2022-08-26T07:35:46.000Z,25.14
2022-08-26T07:37:48.030Z,25.08
2022-08-26T07:39:50.603Z,24.74
2022-08-26T07:41:53.685Z,24.85
2022-08-26T07:43:55.366Z,24.97
2022-08-26T07:45:57.759Z,24.95
2022-08-26T07:47:59.484Z,24.98
2022-08-26T07:50:01.316Z,24.94
2022-08-26T07:52:04.013Z,25.06
2022-08-26T07:54:06.578Z,25.16
2022-08-26T07:56:08.123Z,25.35
2022-08-26T07:58:11.829Z,25.54
2022-08-26T08:00:15.491Z,25.67
2022-08-26T08:02:17.160Z,25.73
2022-08-26T08:04:21.936Z,25.82
2022-08-26T08:06:28.175Z,25.86
2022-08-26T08:08:29.950Z,25.82
2022-08-26T08:10:34.802Z,25.84
2022-08-26T08:12:36.650Z,25.91
2022-08-26T08:14:39.547Z,25.97
2022-08-26T08:16:42.376Z,26.15
2022-08-26T08:18:47.793Z,26.12
2022-08-26T08:20:59.197Z,26.17
2022-08-26T08:23:06.786Z,26.25
2022-08-26T08:25:10.574Z,26.46
2022-08-26T08:27:12.981Z,26.52
2022-08-26T08:29:15.145Z,26.65
2022-08-26T08:31:45.354Z,26.66
2022-08-26T08:33:44.527Z,26.68
2022-08-26T08:35:46.117Z,26.68
2022-08-26T08:37:47.844Z,26.83
2022-08-26T08:39:50.761Z,27.00
2022-08-26T08:42:13.848Z,26.98
2022-08-26T08:44:19.245Z,27.10
2022-08-26T08:46:22.601Z,27.05
2022-08-26T08:48:30.027Z,26.88
2022-08-26T08:50:33.606Z,26.86
2022-08-26T08:52:36.270Z,26.94
2022-08-26T08:54:37.963Z,26.96
2022-08-26T08:56:44.574Z,26.79
2022-08-26T08:58:52.975Z,26.82
2022-08-26T09:01:02.612Z,26.92
2022-08-26T09:03:17.782Z,27.08
2022-08-26T09:05:22.814Z,27.04
2022-08-26T09:07:27.507Z,26.94
2022-08-26T09:09:34.230Z,27.01
2022-08-26T09:11:36.060Z,27.04
2022-08-26T09:13:38.657Z,26.98
2022-08-26T09:15:55.274Z,27.02
2022-08-26T09:18:08.534Z,26.96
2022-08-26T09:20:19.522Z,27.11
2022-08-26T09:22:32.810Z,27.18
2022-08-26T09:24:42.046Z,27.17
2022-08-26T09:26:50.180Z,27.08
2022-08-26T09:28:56.501Z,27.10
2022-08-26T09:31:02.094Z,27.31
2022-08-26T09:33:11.140Z,27.40
2022-08-26T09:35:25.539Z,27.44
2022-08-26T09:37:40.250Z,27.51
2022-08-26T09:39:41.886Z,27.73
2022-08-26T09:41:43.468Z,27.86
2022-08-26T09:44:08.358Z,27.85
2022-08-26T09:46:22.789Z,27.92
2022-08-26T09:48:29.385Z,27.95
2022-08-26T09:50:35.069Z,28.18
2022-08-26T09:52:37.354Z,28.29
2022-08-26T09:54:43.274Z,28.34
2022-08-26T09:56:47.137Z,28.40
2022-08-26T09:58:48.806Z,28.35
2022-08-26T10:00:54.573Z,28.16
2022-08-26T10:02:58.170Z,28.00
2022-08-26T10:05:09.307Z,27.97
2022-08-26T10:07:12.921Z,27.70
2022-08-26T10:09:18.483Z,27.75
2022-08-26T10:11:28.760Z,27.70
2022-08-26T10:13:34.150Z,27.63
2022-08-26T10:15:50.085Z,27.63
2022-08-26T10:18:00.888Z,27.53
2022-08-26T10:20:09.813Z,27.45
2022-08-26T10:22:34.426Z,27.37
2022-08-26T10:24:41.506Z,27.36
2022-08-26T10:27:01.128Z,27.26
2022-08-26T10:29:11.961Z,27.20
2022-08-26T10:31:23.166Z,27.35
2022-08-26T10:33:29.532Z,27.50
2022-08-26T10:35:35.006Z,27.67
2022-08-26T10:37:40.970Z,27.78
2022-08-26T10:39:49.638Z,27.84
2022-08-26T10:42:04.048Z,27.93
2022-08-26T10:44:08.375Z,28.06
2022-08-26T10:46:14.954Z,28.17
2022-08-26T10:48:24.090Z,28.26
2022-08-26T10:50:31.265Z,28.35
2022-08-26T10:52:51.943Z,28.45
2022-08-26T10:54:58.936Z,28.62
2022-08-26T10:57:09.720Z,28.62
2022-08-26T10:59:24.214Z,28.69
2022-08-26T11:01:32.630Z,28.49
2022-08-26T11:03:40.151Z,28.45
2022-08-26T11:05:41.647Z,28.31
2022-08-26T11:07:45.771Z,28.22
2022-08-26T11:09:48.079Z,28.02
2022-08-26T11:11:51.465Z,27.97
2022-08-26T11:14:02.060Z,27.83
2022-08-26T11:16:03.664Z,27.82
2022-08-26T11:18:08.659Z,27.82
2022-08-26T11:20:13.383Z,27.72
2022-08-26T11:22:25.402Z,27.68
2022-08-26T11:24:41.709Z,27.61
2022-08-26T11:26:56.143Z,27.55
2022-08-26T11:28:58.243Z,27.61
2022-08-26T11:30:59.837Z,27.57
2022-08-26T11:33:01.580Z,27.52
2022-08-26T11:35:06.047Z,27.44
2022-08-26T11:37:13.606Z,27.42
2022-08-26T11:39:19.815Z,27.27
2022-08-26T11:41:22.982Z,27.08
2022-08-26T11:43:26.304Z,26.98
2022-08-26T11:45:34.364Z,26.75
2022-08-26T11:47:38.952Z,26.54
2022-08-26T11:49:41.728Z,26.30
2022-08-26T11:51:46.414Z,26.14
2022-08-26T11:53:50.612Z,25.73
2022-08-26T11:55:54.275Z,25.64
2022-08-26T11:58:00.461Z,25.48
2022-08-26T12:00:03.696Z,25.38
2022-08-26T12:02:12.713Z,25.22
2022-08-26T12:04:25.501Z,25.14
2022-08-26T12:06:31.410Z,24.90
2022-08-26T12:08:33.877Z,24.70
2022-08-26T12:10:37.395Z,24.58
2022-08-26T12:12:38.924Z,24.47
2022-08-26T12:14:42.216Z,24.44
2022-08-26T12:16:44.066Z,24.40
2022-08-26T12:18:45.706Z,24.25
2022-08-26T12:20:48.203Z,24.25
2022-08-26T12:22:50.281Z,24.13
2022-08-26T12:24:55.877Z,24.00
2022-08-26T12:27:13.853Z,24.02
2022-08-26T12:29:27.097Z,23.83
2022-08-26T12:31:33.560Z,23.80
2022-08-26T12:33:35.809Z,23.88
2022-08-26T12:35:39.372Z,23.85
2022-08-26T12:37:45.820Z,23.63
2022-08-26T12:39:47.865Z,23.59
2022-08-26T12:41:51.970Z,23.40
2022-08-26T12:43:53.549Z,23.18
2022-08-26T12:45:58.474Z,23.04
2022-08-26T12:48:05.903Z,23.01
2022-08-26T12:50:08.407Z,22.89
2022-08-26T12:52:22.914Z,22.63
2022-08-26T12:54:24.677Z,22.64
2022-08-26T12:56:30.808Z,22.31
2022-08-26T12:58:35.002Z,22.34
2022-08-26T13:00:38.825Z,22.09
2022-08-26T13:02:40.499Z,21.76
2022-08-26T13:04:44.167Z,21.66
2022-08-26T13:06:45.959Z,21.57
2022-08-26T13:08:48.638Z,21.32
2022-08-26T13:11:02.380Z,21.39
2022-08-26T13:13:03.870Z,21.34
2022-08-26T13:15:06.965Z,21.17
2022-08-26T13:17:08.601Z,21.15
2022-08-26T13:19:12.104Z,20.73
2022-08-26T13:21:17.838Z,20.82
2022-08-26T13:23:20.649Z,20.58
2022-08-26T13:25:22.204Z,20.35
2022-08-26T13:27:25.809Z,20.21
2022-08-26T13:29:27.397Z,20.06
2022-08-26T13:31:32.731Z,20.07
2022-08-26T13:33:35.116Z,20.13
2022-08-26T13:35:37.134Z,20.02
2022-08-26T13:37:40.281Z,20.05
2022-08-26T13:39:43.544Z,20.10
2022-08-26T13:41:45.191Z,20.17
2022-08-26T13:43:46.844Z,20.22
2022-08-26T13:45:48.368Z,20.29
2022-08-26T13:47:49.942Z,20.33
2022-08-26T13:49:51.692Z,20.27
2022-08-26T13:51:53.304Z,20.32
2022-08-26T13:53:56.508Z,20.35
2022-08-26T13:55:59.030Z,20.38
2022-08-26T13:58:00.604Z,20.44
2022-08-26T14:00:02.508Z,20.52
2022-08-26T14:02:04.302Z,20.53
2022-08-26T14:04:05.930Z,20.59
2022-08-26T14:06:07.620Z,20.68
2022-08-26T14:08:09.793Z,20.56
2022-08-26T14:10:12.918Z,20.27
2022-08-26T14:12:14.529Z,20.00
2022-08-26T14:14:16.079Z,20.02
2022-08-26T14:16:22.829Z,20.12
2022-08-26T14:18:28.859Z,20.18
2022-08-26T14:20:32.028Z,20.20
2022-08-26T14:22:33.717Z,20.21
2022-08-26T14:24:35.294Z,20.11
2022-08-26T14:26:38.210Z,20.07
2022-08-26T14:28:39.788Z,20.04
2022-08-26T14:30:43.011Z,19.87
2022-08-26T14:32:46.972Z,19.68
2022-08-26T14:34:48.651Z,19.44
2022-08-26T14:36:50.211Z,19.48
2022-08-26T14:38:52.778Z,19.49
2022-08-26T14:40:54.360Z,19.39
2022-08-26T14:43:08.588Z,19.33
2022-08-26T14:45:13.998Z,19.28
2022-08-26T14:47:15.560Z,19.12
2022-08-26T14:49:18.317Z,19.12
2022-08-26T14:51:20.118Z,19.10
2022-08-26T14:53:22.101Z,18.97
2022-08-26T14:55:23.720Z,18.96
2022-08-26T14:57:25.346Z,18.97
2022-08-26T14:59:31.182Z,19.00
2022-08-26T15:01:32.978Z,19.05
2022-08-26T15:03:34.709Z,19.10
2022-08-26T15:05:36.389Z,19.11
2022-08-26T15:07:38.097Z,19.24
2022-08-26T15:09:40.091Z,19.19
2022-08-26T15:11:41.779Z,19.19
2022-08-26T15:13:43.334Z,19.25
2022-08-26T15:15:46.314Z,19.28
2022-08-26T15:17:47.912Z,19.30
2022-08-26T15:19:51.083Z,19.33
2022-08-26T15:21:53.291Z,19.41
2022-08-26T15:23:55.190Z,19.65
2022-08-26T15:25:56.810Z,19.72
2022-08-26T15:27:58.377Z,19.80
2022-08-26T15:30:01.815Z,19.76
2022-08-26T15:32:05.123Z,19.79
2022-08-26T15:34:10.997Z,19.75
2022-08-26T15:36:14.990Z,19.77
2022-08-26T15:38:16.627Z,19.78
2022-08-26T15:40:18.589Z,19.75
2022-08-26T15:42:23.809Z,19.66
2022-08-26T15:44:26.051Z,19.56
2022-08-26T15:46:27.792Z,19.56
2022-08-26T15:48:30.898Z,19.55
2022-08-26T15:50:32.530Z,19.50
2022-08-26T15:52:34.142Z,19.46
2022-08-26T15:54:35.843Z,19.49
2022-08-26T15:56:37.964Z,19.47
2022-08-26T15:58:40.319Z,19.54
2022-08-26T16:00:42.582Z,19.52
2022-08-26T16:02:44.233Z,19.51
2022-08-26T16:04:47.191Z,19.40
2022-08-26T16:06:50.075Z,19.46
2022-08-26T16:08:51.672Z,19.46
2022-08-26T16:10:53.264Z,19.37
2022-08-26T16:12:54.828Z,19.29
2022-08-26T16:14:56.421Z,19.22
2022-08-26T16:16:58.046Z,19.28
2022-08-26T16:19:00.577Z,19.29
2022-08-26T16:21:13.175Z,19.34
2022-08-26T16:23:15.794Z,19.38
2022-08-26T16:25:17.525Z,19.37
2022-08-26T16:27:19.082Z,19.35
2022-08-26T16:29:24.744Z,19.26
2022-08-26T16:31:26.428Z,19.31
2022-08-26T16:33:29.253Z,19.31
2022-08-26T16:35:31.278Z,19.31
2022-08-26T16:37:36.522Z,19.45
2022-08-26T16:39:45.153Z,19.53
2022-08-26T16:41:47.076Z,19.47
2022-08-26T16:43:48.876Z,19.45
2022-08-26T16:45:50.468Z,19.47
2022-08-26T16:47:52.382Z,19.49
2022-08-26T16:49:54.019Z,19.51
2022-08-26T16:51:55.600Z,19.55
2022-08-26T16:54:01.658Z,19.66
2022-08-26T16:56:03.773Z,19.64
2022-08-26T16:58:05.338Z,19.65
2022-08-26T17:00:11.151Z,19.60
2022-08-26T17:02:12.812Z,19.56
2022-08-26T17:04:15.877Z,19.61
2022-08-26T17:06:17.545Z,19.54
2022-08-26T17:08:24.427Z,19.64
2022-08-26T17:10:32.762Z,19.51
2022-08-26T17:12:34.612Z,19.61
2022-08-26T17:14:36.172Z,19.69
2022-08-26T17:16:38.150Z,19.58
2022-08-26T17:18:39.825Z,19.63
2022-08-26T17:20:44.331Z,19.59
2022-08-26T17:22:47.976Z,19.57
2022-08-26T17:24:49.690Z,19.58
2022-08-26T17:26:53.454Z,19.62
2022-08-26T17:28:57.872Z,19.54
2022-08-26T17:31:00.065Z,19.59
2022-08-26T17:33:01.838Z,19.68
2022-08-26T17:35:13.782Z,19.61
2022-08-26T17:37:15.358Z,19.60
2022-08-26T17:39:16.944Z,19.67
2022-08-26T17:41:18.568Z,19.60
2022-08-26T17:43:21.718Z,19.79
2022-08-26T17:45:23.250Z,19.79
2022-08-26T17:47:24.749Z,19.75
2022-08-26T17:49:26.436Z,19.70
2022-08-26T17:51:27.994Z,19.71
2022-08-26T17:53:29.552Z,19.69
2022-08-26T17:55:31.104Z,19.61
2022-08-26T17:57:40.881Z,19.67
2022-08-26T17:59:45.144Z,19.67
2022-08-26T18:01:47.788Z,19.61
2022-08-26T18:03:49.795Z,19.61
2022-08-26T18:05:52.394Z,19.56
2022-08-26T18:07:53.971Z,19.62
2022-08-26T18:09:55.614Z,19.56
2022-08-26T18:11:57.136Z,19.69
2022-08-26T18:13:58.715Z,19.63
2022-08-26T18:16:04.767Z,19.69
2022-08-26T18:18:06.431Z,19.74
2022-08-26T18:20:10.520Z,19.78
2022-08-26T18:22:12.067Z,19.92
2022-08-26T18:24:17.431Z,19.91
2022-08-26T18:26:21.559Z,19.82
2022-08-26T18:28:23.084Z,19.88
2022-08-26T18:30:25.811Z,19.90
2022-08-26T18:32:28.739Z,19.92
2022-08-26T18:34:31.655Z,19.88
2022-08-26T18:36:36.017Z,19.78
2022-08-26T18:38:37.567Z,19.70
2022-08-26T18:40:40.778Z,19.78
2022-08-26T18:42:42.350Z,19.92
2022-08-26T18:44:44.094Z,19.91
2022-08-26T18:46:46.767Z,19.91
2022-08-26T18:48:51.014Z,19.90
2022-08-26T18:50:55.175Z,19.85
2022-08-26T18:52:56.889Z,19.85
2022-08-26T18:54:58.640Z,19.90
2022-08-26T18:57:00.742Z,19.94
2022-08-26T18:59:02.894Z,19.97
2022-08-26T19:01:04.579Z,19.99
2022-08-26T19:03:06.290Z,19.98
2022-08-26T19:05:20.262Z,19.93
2022-08-26T19:07:21.848Z,19.91
2022-08-26T19:09:23.417Z,19.83
2022-08-26T19:11:32.511Z,19.83
2022-08-26T19:13:44.071Z,19.80
2022-08-26T19:15:45.623Z,19.77
2022-08-26T19:17:47.173Z,19.77
2022-08-26T19:19:48.685Z,19.80
2022-08-26T19:21:52.377Z,19.81
2022-08-26T19:23:56.948Z,19.80
2022-08-26T19:25:59.271Z,19.85
2022-08-26T19:28:00.810Z,19.91
2022-08-26T19:30:02.354Z,20.06
2022-08-26T19:32:04.533Z,20.09
2022-08-26T19:34:06.110Z,20.00
2022-08-26T19:36:12.675Z,19.90
2022-08-26T19:38:17.664Z,19.83
2022-08-26T19:40:19.479Z,19.82
2022-08-26T19:42:21.057Z,19.82
2022-08-26T19:44:23.283Z,19.92
2022-08-26T19:46:25.758Z,20.04
2022-08-26T19:48:27.381Z,19.97
2022-08-26T19:50:31.110Z,19.80
2022-08-26T19:52:32.714Z,19.93
2022-08-26T19:54:35.621Z,19.84
2022-08-26T19:56:37.101Z,19.81
2022-08-26T19:58:38.998Z,19.75
2022-08-26T20:00:40.574Z,19.71
2022-08-26T20:02:42.701Z,19.73
2022-08-26T20:04:44.463Z,19.75
2022-08-26T20:06:45.969Z,19.73
2022-08-26T20:08:52.309Z,19.73
2022-08-26T20:11:01.960Z,19.67
2022-08-26T20:13:03.492Z,19.65
2022-08-26T20:15:06.224Z,19.61
2022-08-26T20:17:07.998Z,19.63
2022-08-26T20:19:09.515Z,19.56
2022-08-26T20:21:11.181Z,19.61
2022-08-26T20:23:12.985Z,19.52
2022-08-26T20:25:14.585Z,19.39
2022-08-26T20:27:17.886Z,19.45
2022-08-26T20:29:19.593Z,19.40
2022-08-26T20:31:21.197Z,19.52
2022-08-26T20:33:22.813Z,19.45
2022-08-26T20:35:24.406Z,19.44
2022-08-26T20:37:25.968Z,19.40
2022-08-26T20:39:28.133Z,19.32
2022-08-26T20:41:29.737Z,19.34
2022-08-26T20:43:32.733Z,19.34
2022-08-26T20:45:34.468Z,19.28
2022-08-26T20:47:36.770Z,19.33
2022-08-26T20:49:38.400Z,19.40
2022-08-26T20:51:40.897Z,19.31
2022-08-26T20:53:42.819Z,19.31
2022-08-26T20:55:44.353Z,19.33
2022-08-26T20:57:46.202Z,19.37
2022-08-26T20:59:49.198Z,19.37
2022-08-26T21:01:50.926Z,19.40
2022-08-26T21:03:53.552Z,19.38
2022-08-26T21:05:55.255Z,19.42
2022-08-26T21:07:56.794Z,19.34
2022-08-26T21:09:58.409Z,19.35
2022-08-26T21:12:01.041Z,19.41
2022-08-26T21:14:16.162Z,19.35
2022-08-26T21:16:20.492Z,19.35
2022-08-26T21:18:22.150Z,19.35
2022-08-26T21:20:23.761Z,19.51
2022-08-26T21:22:25.490Z,19.66
2022-08-26T21:24:27.273Z,19.75
2022-08-26T21:26:29.335Z,19.69
2022-08-26T21:28:31.101Z,19.67
2022-08-26T21:30:33.095Z,19.66
2022-08-26T21:32:36.180Z,19.58
2022-08-26T21:34:37.796Z,19.63
2022-08-26T21:36:41.399Z,19.66
2022-08-26T21:38:43.579Z,19.68
2022-08-26T21:40:45.247Z,19.50
2022-08-26T21:42:46.873Z,19.42
2022-08-26T21:44:50.844Z,19.40
2022-08-26T21:46:54.687Z,19.30
2022-08-26T21:49:00.559Z,19.39
2022-08-26T21:51:04.341Z,19.55
2022-08-26T21:53:06.059Z,19.60
2022-08-26T21:55:11.681Z,19.61
2022-08-26T21:57:13.512Z,19.62
2022-08-26T21:59:17.584Z,19.63
2022-08-26T22:01:21.593Z,19.58
2022-08-26T22:03:23.276Z,19.51
2022-08-26T22:05:26.553Z,19.45
2022-08-26T22:07:28.287Z,19.38
2022-08-26T22:09:31.037Z,19.37
2022-08-26T22:11:32.650Z,19.28
2022-08-26T22:13:36.107Z,19.22
2022-08-26T22:15:37.731Z,19.16
2022-08-26T22:17:39.806Z,19.19
2022-08-26T22:19:46.282Z,19.16
2022-08-26T22:21:50.332Z,19.19
2022-08-26T22:23:56.149Z,19.25
2022-08-26T22:26:00.475Z,19.22
2022-08-26T22:28:02.767Z,19.17
2022-08-26T22:30:05.720Z,19.19
2022-08-26T22:32:07.677Z,19.19
2022-08-26T22:34:11.593Z,19.10
2022-08-26T22:36:18.090Z,19.09
2022-08-26T22:38:21.906Z,19.09
2022-08-26T22:40:23.858Z,19.14
2022-08-26T22:42:25.605Z,19.11
2022-08-26T22:44:27.316Z,19.10
2022-08-26T22:46:29.106Z,19.09
2022-08-26T22:48:30.793Z,19.07
2022-08-26T22:50:32.704Z,19.02
2022-08-26T22:52:34.578Z,19.04
2022-08-26T22:54:37.628Z,18.97
2022-08-26T22:56:40.163Z,18.94
2022-08-26T22:58:41.935Z,18.96
2022-08-26T23:00:45.667Z,18.97
2022-08-26T23:02:47.599Z,18.94
2022-08-26T23:04:49.262Z,18.97
2022-08-26T23:06:51.265Z,18.95
2022-08-26T23:08:53.289Z,18.89
2022-08-26T23:10:56.394Z,18.92
2022-08-26T23:12:58.559Z,19.04
2022-08-26T23:15:01.363Z,19.02
2022-08-26T23:17:03.161Z,19.14
2022-08-26T23:19:05.080Z,19.18
2022-08-26T23:21:07.221Z,19.11
2022-08-26T23:23:09.372Z,19.05
2022-08-26T23:25:11.954Z,19.04
2022-08-26T23:27:15.201Z,18.99
2022-08-26T23:29:17.007Z,18.91
2022-08-26T23:31:19.070Z,18.90
2022-08-26T23:33:21.112Z,18.90
2022-08-26T23:35:22.804Z,18.92
2022-08-26T23:37:26.682Z,18.92
2022-08-26T23:39:28.810Z,18.90
2022-08-26T23:41:30.482Z,18.95
2022-08-26T23:43:33.508Z,18.95
2022-08-26T23:45:35.712Z,18.98
2022-08-26T23:47:37.531Z,18.96
2022-08-26T23:49:39.303Z,19.04
2022-08-26T23:51:41.163Z,19.04
2022-08-26T23:53:42.924Z,19.04
2022-08-26T23:55:44.750Z,19.19
2022-08-26T23:57:46.616Z,19.27
2022-08-26T23:59:50.111Z,19.30
